createdAt,value
2023-02-15T00:08:44.835Z,99.99
2023-02-15T00:18:45.009Z,99.99
2023-02-15T00:28:45.248Z,99.99
2023-02-15T00:38:45.444Z,99.99
2023-02-15T00:48:45.669Z,99.99
2023-02-15T00:58:45.859Z,99.99
2023-02-15T01:08:46.107Z,99.99
2023-02-15T01:18:46.268Z,99.99
2023-02-15T01:28:46.499Z,99.99
2023-02-15T01:38:46.676Z,99.99
2023-02-15T01:48:46.898Z,99.99
2023-02-15T01:58:47.071Z,99.99
2023-02-15T02:08:47.556Z,99.99
2023-02-15T02:18:47.389Z,99.99
2023-02-15T02:28:47.803Z,99.99
2023-02-15T02:38:47.761Z,99.99
2023-02-15T02:48:48.007Z,99.99
2023-02-15T02:58:48.604Z,99.99
2023-02-15T03:08:48.393Z,99.99
2023-02-15T03:18:48.566Z,99.99
2023-02-15T03:28:48.804Z,99.99
2023-02-15T03:38:48.984Z,99.99
2023-02-15T03:48:49.397Z,99.99
2023-02-15T03:58:49.688Z,99.99
2023-02-15T04:08:49.744Z,99.99
2023-02-15T04:18:49.910Z,99.99
2023-02-15T04:28:49.909Z,99.99
2023-02-15T04:38:50.154Z,99.99
2023-02-15T04:48:50.259Z,99.99
2023-02-15T04:58:50.441Z,99.99
2023-02-15T05:08:50.682Z,99.99
2023-02-15T05:18:50.749Z,99.99
2023-02-15T05:28:50.981Z,99.99
2023-02-15T05:38:51.184Z,99.99
2023-02-15T05:48:51.400Z,99.99
2023-02-15T05:58:51.575Z,99.99
2023-02-15T06:08:51.797Z,99.99
2023-02-15T06:18:53.744Z,99.99
2023-02-15T06:28:52.176Z,99.99
2023-02-15T06:38:52.358Z,99.99
2023-02-15T06:48:52.580Z,99.99
2023-02-15T06:58:52.763Z,99.99
2023-02-15T07:08:52.984Z,99.99
2023-02-15T07:18:53.211Z,99.99
2023-02-15T07:28:53.322Z,99.99
2023-02-15T07:38:53.550Z,99.99
2023-02-15T07:48:53.762Z,99.99
2023-02-15T07:58:53.972Z,99.99
2023-02-15T08:08:54.185Z,99.99
2023-02-15T08:18:54.437Z,99.99
2023-02-15T08:28:55.664Z,99.99
2023-02-15T08:38:54.715Z,99.99
2023-02-15T08:48:54.894Z,99.99
2023-02-15T08:58:55.238Z,99.99
2023-02-15T09:08:55.160Z,99.99
2023-02-15T09:18:55.488Z,99.99
2023-02-15T09:28:55.414Z,99.99
2023-02-15T09:38:55.499Z,94.88
2023-02-15T09:48:55.636Z,90.69
2023-02-15T09:58:55.993Z,87.54
2023-02-15T10:08:56.007Z,87.78
2023-02-15T10:18:56.077Z,86.21
2023-02-15T10:28:56.558Z,80.62
2023-02-15T10:38:56.499Z,78.86
2023-02-15T10:48:56.611Z,79.06
2023-02-15T10:58:56.698Z,78.65
2023-02-15T11:08:56.820Z,74.49
2023-02-15T11:18:57.023Z,73.54
2023-02-15T11:28:57.170Z,70.70
2023-02-15T11:38:57.269Z,71.56
2023-02-15T11:48:57.441Z,71.73
2023-02-15T11:58:57.601Z,68.25
2023-02-15T12:08:57.830Z,67.27
2023-02-15T12:18:58.000Z,65.25
2023-02-15T12:28:58.234Z,64.14
2023-02-15T12:38:59.499Z,61.63
2023-02-15T12:48:58.559Z,57.17
2023-02-15T12:58:58.736Z,55.91
2023-02-15T13:08:58.995Z,53.39
2023-02-15T13:18:59.049Z,51.82
2023-02-15T13:28:59.411Z,52.48
2023-02-15T13:38:59.487Z,51.34
2023-02-15T13:48:59.636Z,50.78
2023-02-15T13:58:59.812Z,46.61
2023-02-15T14:09:00.045Z,40.15
2023-02-15T14:19:00.205Z,41.14
2023-02-15T14:29:00.455Z,43.29
2023-02-15T14:39:00.516Z,43.91
2023-02-15T14:49:00.743Z,41.24
2023-02-15T14:59:00.952Z,41.35
2023-02-15T15:09:01.075Z,42.68
2023-02-15T15:19:01.512Z,44.81
2023-02-15T15:29:01.428Z,45.50
2023-02-15T15:39:01.488Z,48.11
2023-02-15T15:49:01.801Z,51.30
2023-02-15T15:59:01.849Z,54.23
2023-02-15T16:09:02.128Z,55.02
2023-02-15T16:19:02.278Z,59.18
2023-02-15T16:29:02.582Z,61.52
2023-02-15T16:39:02.678Z,59.47
2023-02-15T16:49:02.913Z,62.74
2023-02-15T16:59:03.118Z,62.56
2023-02-15T17:09:03.354Z,64.02
2023-02-15T17:19:03.553Z,64.98
2023-02-15T17:29:04.902Z,66.69
2023-02-15T17:39:03.886Z,65.86
2023-02-15T17:49:04.168Z,66.07
2023-02-15T17:59:04.121Z,65.55
2023-02-15T18:09:04.442Z,66.44
2023-02-15T18:19:04.686Z,68.95
2023-02-15T18:29:04.991Z,71.01
2023-02-15T18:39:08.936Z,72.60
2023-02-15T18:49:05.237Z,72.32
2023-02-15T18:59:05.209Z,74.01
2023-02-15T19:09:05.784Z,73.28
2023-02-15T19:19:07.315Z,75.64
2023-02-15T19:29:05.859Z,75.12
2023-02-15T19:39:06.071Z,76.92
2023-02-15T19:49:06.234Z,78.09
2023-02-15T19:59:06.315Z,79.06
2023-02-15T20:09:06.572Z,79.10
2023-02-15T20:19:06.776Z,79.72
2023-02-15T20:29:06.928Z,75.23
2023-02-15T20:39:07.126Z,75.46
2023-02-15T20:49:07.378Z,76.78
2023-02-15T20:59:07.573Z,79.55
2023-02-15T21:09:07.840Z,79.17
2023-02-15T21:19:07.908Z,77.34
2023-02-15T21:29:08.152Z,80.18
2023-02-15T21:39:08.358Z,81.40
2023-02-15T21:49:08.645Z,83.20
2023-02-15T21:59:08.730Z,81.60
2023-02-15T22:09:08.980Z,80.60
2023-02-15T22:19:09.172Z,78.13
2023-02-15T22:29:09.560Z,77.30
2023-02-15T22:39:09.621Z,80.98
2023-02-15T22:49:09.869Z,82.17
2023-02-15T22:59:10.062Z,82.05
2023-02-15T23:09:10.316Z,83.61
2023-02-15T23:19:10.504Z,85.98
2023-02-15T23:29:10.752Z,87.08
2023-02-15T23:39:10.951Z,86.88
2023-02-15T23:49:11.204Z,84.12
2023-02-15T23:59:11.395Z,83.56
